createdAt,value
2019-04-14T00:00:46.877Z,101697.77
2019-04-14T00:03:26.453Z,101693.88
2019-04-14T00:06:02.705Z,101696.98
2019-04-14T00:08:34.841Z,101695.17
2019-04-14T00:11:06.261Z,101702.94
2019-04-14T00:13:39.263Z,101703.38
2019-04-14T00:16:11.748Z,101704.23
2019-04-14T00:18:44.654Z,101698.61
2019-04-14T00:21:17.553Z,101702.60
2019-04-14T00:23:50.148Z,101697.77
2019-04-14T00:26:33.528Z,101706.38
2019-04-14T00:29:06.691Z,101699.09
2019-04-14T00:31:39.107Z,101694.03
2019-04-14T00:34:35.495Z,101690.56
2019-04-14T00:37:25.202Z,101682.95
2019-04-14T00:40:01.942Z,101684.06
2019-04-14T00:42:43.750Z,101674.13
2019-04-14T00:45:37.905Z,101680.25
2019-04-14T00:48:15.810Z,101679.38
2019-04-14T00:50:45.156Z,101676.52
2019-04-14T00:53:16.926Z,101675.70
2019-04-14T00:55:48.949Z,101673.11
2019-04-14T00:58:21.477Z,101668.30
2019-04-14T01:00:53.830Z,101669.48
2019-04-14T01:03:25.164Z,101669.58
2019-04-14T01:05:56.907Z,101671.60
2019-04-14T01:08:29.216Z,101668.02
2019-04-14T01:11:01.023Z,101670.25
2019-04-14T01:13:33.273Z,101671.63
2019-04-14T01:16:11.574Z,101671.88
2019-04-14T01:18:38.658Z,101671.34
2019-04-14T01:21:11.030Z,101663.28
2019-04-14T01:23:43.453Z,101669.62
2019-04-14T01:26:15.938Z,101674.82
2019-04-14T01:28:48.334Z,101668.13
2019-04-14T01:31:20.545Z,101673.61
2019-04-14T01:33:51.856Z,101672.55
2019-04-14T01:36:23.607Z,101666.66
2019-04-14T01:38:55.728Z,101669.11
2019-04-14T01:41:28.217Z,101674.91
2019-04-14T01:44:00.326Z,101681.28
2019-04-14T01:46:34.013Z,101678.25
2019-04-14T01:49:05.127Z,101681.52
2019-04-14T01:51:48.964Z,101675.83
2019-04-14T01:54:40.975Z,101675.36
2019-04-14T01:57:29.057Z,101680.30
2019-04-14T02:00:20.795Z,101684.13
2019-04-14T02:02:53.089Z,101673.47
2019-04-14T02:05:25.708Z,101676.80
2019-04-14T02:07:58.008Z,101679.12
2019-04-14T02:10:30.502Z,101687.66
2019-04-14T02:13:02.870Z,101684.91
2019-04-14T02:15:35.204Z,101679.53
2019-04-14T02:18:07.836Z,101687.13
2019-04-14T02:20:40.274Z,101684.33
2019-04-14T02:23:12.593Z,101689.44
2019-04-14T02:25:45.096Z,101688.82
2019-04-14T02:28:17.647Z,101696.77
2019-04-14T02:31:00.127Z,101693.57
2019-04-14T02:33:59.832Z,101687.93
2019-04-14T02:38:55.275Z,101696.14
2019-04-14T02:44:04.182Z,101694.89
2019-04-14T02:46:47.781Z,101694.70
2019-04-14T02:49:08.187Z,101697.05
2019-04-14T02:51:40.083Z,101696.16
2019-04-14T02:54:22.858Z,101695.97
2019-04-14T02:59:23.019Z,101697.86
2019-04-14T03:02:09.994Z,101697.86
2019-04-14T03:04:25.783Z,101702.25
2019-04-14T03:12:09.672Z,101699.06
2019-04-14T03:17:30.232Z,101689.71
2019-04-14T03:23:14.789Z,101695.86
2019-04-14T03:25:49.790Z,101684.59
2019-04-14T03:39:00.000Z,101696.61
2019-04-14T03:43:48.311Z,101691.81
2019-04-14T03:52:08.733Z,101688.86
2019-04-14T03:54:06.241Z,101690.23
2019-04-14T03:56:55.711Z,101685.89
2019-04-14T03:59:28.205Z,101697.32
2019-04-14T04:02:00.767Z,101687.09
2019-04-14T04:04:33.665Z,101691.92
2019-04-14T04:07:06.164Z,101693.12
2019-04-14T04:09:41.777Z,101696.58
2019-04-14T04:12:13.963Z,101693.46
2019-04-14T04:14:46.392Z,101694.89
2019-04-14T04:17:43.087Z,101699.84
2019-04-14T04:20:30.623Z,101699.84
2019-04-14T04:23:29.804Z,101703.60
2019-04-14T04:26:19.260Z,101710.58
2019-04-14T04:29:02.797Z,101708.24
2019-04-14T04:31:53.047Z,101705.30
2019-04-14T04:34:44.519Z,101706.34
2019-04-14T04:37:50.467Z,101707.11
2019-04-14T04:40:28.935Z,101703.84
2019-04-14T04:43:01.218Z,101706.12
2019-04-14T04:45:34.111Z,101713.25
2019-04-14T04:48:08.904Z,101707.58
2019-04-14T04:50:41.047Z,101710.20
2019-04-14T04:53:13.737Z,101712.07
2019-04-14T04:55:46.072Z,101711.06
2019-04-14T04:58:17.865Z,101716.67
2019-04-14T05:00:51.455Z,101720.81
2019-04-14T05:03:23.247Z,101720.64
2019-04-14T05:06:50.540Z,101717.44
2019-04-14T05:09:44.801Z,101724.16
2019-04-14T05:12:39.565Z,101721.18
2019-04-14T05:15:33.734Z,101720.38
2019-04-14T05:18:05.044Z,101717.31
2019-04-14T05:20:37.698Z,101721.71
2019-04-14T05:23:10.248Z,101724.91
2019-04-14T05:25:43.025Z,101720.37
2019-04-14T05:28:15.468Z,101722.67
2019-04-14T05:30:48.160Z,101726.14
2019-04-14T05:33:20.692Z,101728.50
2019-04-14T05:35:53.095Z,101729.78
2019-04-14T05:38:25.775Z,101728.14
2019-04-14T05:40:58.246Z,101721.78
2019-04-14T05:43:38.373Z,101736.89
2019-04-14T05:46:06.095Z,101735.59
2019-04-14T05:48:38.066Z,101732.19
2019-04-14T05:51:11.013Z,101724.37
2019-04-14T05:53:43.935Z,101730.75
2019-04-14T05:56:16.434Z,101724.19
2019-04-14T05:58:49.228Z,101728.67
2019-04-14T06:01:22.561Z,101731.30
2019-04-14T06:04:11.363Z,101732.84
2019-04-14T06:06:43.627Z,101738.09
2019-04-14T06:09:15.637Z,101740.16
2019-04-14T06:11:46.898Z,101740.23
2019-04-14T06:14:18.227Z,101738.48
2019-04-14T06:16:50.496Z,101737.95
2019-04-14T06:19:21.797Z,101739.74
2019-04-14T06:21:53.731Z,101735.32
2019-04-14T06:24:25.806Z,101738.32
2019-04-14T06:26:57.135Z,101737.66
2019-04-14T06:29:28.691Z,101738.52
2019-04-14T06:32:19.159Z,101746.87
2019-04-14T06:35:10.092Z,101751.48
2019-04-14T06:37:53.765Z,101757.88
2019-04-14T06:40:26.594Z,101755.20
2019-04-14T06:42:58.962Z,101755.50
2019-04-14T06:45:30.346Z,101746.20
2019-04-14T06:48:02.490Z,101762.50
2019-04-14T06:50:34.239Z,101757.12
2019-04-14T06:53:06.098Z,101755.90
2019-04-14T06:55:37.476Z,101754.91
2019-04-14T06:58:10.417Z,101761.59
2019-04-14T07:00:41.972Z,101760.88
2019-04-14T07:03:13.655Z,101765.98
2019-04-14T07:05:46.010Z,101765.17
2019-04-14T07:08:21.280Z,101771.23
2019-04-14T07:10:53.476Z,101766.92
2019-04-14T07:13:26.044Z,101773.55
2019-04-14T07:15:58.457Z,101770.62
2019-04-14T07:18:30.283Z,101763.80
2019-04-14T07:21:02.530Z,101765.92
2019-04-14T07:23:34.734Z,101761.09
2019-04-14T07:26:07.187Z,101778.06
2019-04-14T07:28:39.115Z,101764.94
2019-04-14T07:31:22.323Z,101780.41
2019-04-14T07:34:13.024Z,101776.04
2019-04-14T07:37:03.871Z,101777.14
2019-04-14T07:39:49.764Z,101778.30
2019-04-14T07:42:33.142Z,101779.52
2019-04-14T07:45:10.189Z,101782.23
2019-04-14T07:47:59.652Z,101782.87
2019-04-14T07:50:54.281Z,101779.67
2019-04-14T07:53:35.833Z,101783.73
2019-04-14T07:56:17.659Z,101779.58
2019-04-14T07:59:08.528Z,101791.27
2019-04-14T08:01:49.912Z,101787.72
2019-04-14T08:04:33.274Z,101791.14
2019-04-14T08:07:06.546Z,101788.78
2019-04-14T08:09:38.760Z,101791.44
2019-04-14T08:12:10.326Z,101788.78
2019-04-14T08:14:41.842Z,101799.05
2019-04-14T08:17:13.258Z,101791.14
2019-04-14T08:19:45.130Z,101798.16
2019-04-14T08:22:16.864Z,101793.86
2019-04-14T08:24:48.662Z,101796.08
2019-04-14T08:27:20.523Z,101798.09
2019-04-14T08:29:51.947Z,101795.20
2019-04-14T08:32:23.832Z,101793.88
2019-04-14T08:34:55.317Z,101797.84
2019-04-14T08:37:27.748Z,101805.97
2019-04-14T08:40:02.672Z,101800.65
2019-04-14T08:42:52.144Z,101794.16
2019-04-14T08:45:45.559Z,101802.42
2019-04-14T08:48:35.281Z,101801.45
2019-04-14T08:51:24.857Z,101797.56
2019-04-14T08:54:01.946Z,101805.05
2019-04-14T08:56:40.430Z,101798.08
2019-04-14T08:59:33.343Z,101810.37
2019-04-14T09:02:10.533Z,101803.44
2019-04-14T09:04:58.635Z,101797.27
2019-04-14T09:07:42.580Z,101794.30
2019-04-14T09:10:24.067Z,101798.02
2019-04-14T09:12:57.160Z,101798.02
2019-04-14T09:15:29.257Z,101802.27
2019-04-14T09:18:01.034Z,101800.78
2019-04-14T09:20:33.458Z,101801.37
2019-04-14T09:23:04.814Z,101797.80
2019-04-14T09:25:37.023Z,101799.53
2019-04-14T09:28:08.526Z,101799.67
2019-04-14T09:30:40.001Z,101810.02
2019-04-14T09:33:12.053Z,101802.27
2019-04-14T09:35:44.675Z,101802.39
2019-04-14T09:38:16.386Z,101806.46
2019-04-14T09:40:47.926Z,101808.38
2019-04-14T09:43:19.380Z,101815.63
2019-04-14T09:45:51.136Z,101812.47
2019-04-14T09:48:22.910Z,101814.00
2019-04-14T09:51:04.278Z,101815.00
2019-04-14T09:53:28.224Z,101815.11
2019-04-14T09:56:00.975Z,101815.38
2019-04-14T09:58:32.804Z,101814.08
2019-04-14T10:01:04.315Z,101813.47
2019-04-14T10:03:35.861Z,101811.02
2019-04-14T10:06:07.709Z,101819.91
2019-04-14T10:08:39.864Z,101827.83
2019-04-14T10:11:11.191Z,101823.16
2019-04-14T10:13:42.979Z,101826.53
2019-04-14T10:16:16.340Z,101828.92
2019-04-14T10:18:48.165Z,101825.39
2019-04-14T10:21:19.541Z,101826.46
2019-04-14T10:23:50.995Z,101824.49
2019-04-14T10:26:22.345Z,101831.48
2019-04-14T10:28:54.007Z,101829.38
2019-04-14T10:31:26.476Z,101827.55
2019-04-14T10:33:57.967Z,101832.05
2019-04-14T10:36:31.899Z,101828.68
2019-04-14T10:39:05.102Z,101826.97
2019-04-14T10:41:37.374Z,101833.73
2019-04-14T10:44:08.899Z,101832.39
2019-04-14T10:46:41.007Z,101828.47
2019-04-14T10:49:13.103Z,101836.47
2019-04-14T10:51:44.874Z,101833.87
2019-04-14T10:54:16.697Z,101834.11
2019-04-14T10:56:48.457Z,101832.91
2019-04-14T10:59:19.815Z,101836.39
2019-04-14T11:01:51.198Z,101837.67
2019-04-14T11:04:22.719Z,101838.34
2019-04-14T11:07:04.287Z,101842.42
2019-04-14T11:09:36.063Z,101836.19
2019-04-14T11:12:08.040Z,101838.06
2019-04-14T11:14:39.772Z,101838.03
2019-04-14T11:17:11.305Z,101838.78
2019-04-14T11:19:42.561Z,101836.19
2019-04-14T11:22:14.326Z,101843.85
2019-04-14T11:24:46.485Z,101841.55
2019-04-14T11:27:18.113Z,101838.00
2019-04-14T11:29:53.866Z,101835.28
2019-04-14T11:32:57.401Z,101839.18
2019-04-14T11:35:34.596Z,101841.95
2019-04-14T11:38:24.278Z,101833.83
2019-04-14T11:40:58.171Z,101844.04
2019-04-14T11:43:30.173Z,101845.83
2019-04-14T11:46:03.782Z,101846.03
2019-04-14T11:48:35.703Z,101842.04
2019-04-14T11:51:07.126Z,101849.52
2019-04-14T11:53:39.119Z,101853.63
2019-04-14T11:56:13.397Z,101855.41
2019-04-14T11:58:45.384Z,101857.58
2019-04-14T12:01:32.613Z,101856.10
2019-04-14T12:04:10.267Z,101853.63
2019-04-14T12:06:59.610Z,101853.59
2019-04-14T12:09:34.271Z,101854.98
2019-04-14T12:12:10.378Z,101857.27
2019-04-14T12:14:41.951Z,101856.28
2019-04-14T12:17:14.015Z,101857.42
2019-04-14T12:19:45.812Z,101856.63
2019-04-14T12:22:17.656Z,101850.45
2019-04-14T12:24:49.608Z,101850.37
2019-04-14T12:27:21.352Z,101855.81
2019-04-14T12:30:01.056Z,101860.20
2019-04-14T12:32:36.301Z,101859.08
2019-04-14T12:35:10.257Z,101858.19
2019-04-14T12:37:42.637Z,101864.33
2019-04-14T12:40:15.634Z,101864.33
2019-04-14T12:43:15.567Z,101859.47
2019-04-14T12:46:09.870Z,101857.78
2019-04-14T12:48:50.525Z,101861.84
2019-04-14T12:51:29.380Z,101865.65
2019-04-14T12:59:07.422Z,101870.30
2019-04-14T13:02:39.926Z,101867.28
2019-04-14T13:13:03.622Z,101863.84
2019-04-14T13:15:35.639Z,101866.06
2019-04-14T13:18:07.075Z,101857.50
2019-04-14T13:20:39.347Z,101857.50
2019-04-14T13:23:12.671Z,101858.56
2019-04-14T13:25:44.737Z,101851.00
2019-04-14T13:28:21.461Z,101859.96
2019-04-14T13:31:14.801Z,101860.52
2019-04-14T13:33:46.522Z,101855.81
2019-04-14T13:36:18.140Z,101854.27
2019-04-14T13:38:50.196Z,101854.56
2019-04-14T13:41:21.764Z,101863.84
2019-04-14T13:43:53.135Z,101858.37
2019-04-14T13:46:25.062Z,101859.59
2019-04-14T13:48:56.990Z,101857.98
2019-04-14T13:51:29.602Z,101857.41
2019-04-14T13:54:01.986Z,101855.77
2019-04-14T13:56:34.054Z,101855.69
2019-04-14T13:59:05.782Z,101849.45
2019-04-14T14:01:37.085Z,101857.22
2019-04-14T14:04:09.489Z,101848.14
2019-04-14T14:06:40.621Z,101846.48
2019-04-14T14:09:12.629Z,101845.94
2019-04-14T14:12:00.344Z,101847.11
2019-04-14T14:14:46.887Z,101846.56
2019-04-14T14:17:39.848Z,101847.08
2019-04-14T14:20:18.280Z,101847.89
2019-04-14T14:23:00.573Z,101844.88
2019-04-14T14:25:46.005Z,101845.67
2019-04-14T14:28:17.334Z,101839.54
2019-04-14T14:30:48.625Z,101839.25
2019-04-14T14:33:20.650Z,101838.42
2019-04-14T14:35:52.053Z,101833.73
2019-04-14T14:38:24.118Z,101842.50
2019-04-14T14:40:57.427Z,101834.77
2019-04-14T14:43:28.811Z,101841.95
2019-04-14T14:46:23.980Z,101838.60
2019-04-14T14:49:03.849Z,101840.19
2019-04-14T14:51:47.763Z,101839.56
2019-04-14T14:54:20.086Z,101842.09
2019-04-14T14:56:51.816Z,101837.06
2019-04-14T14:59:23.526Z,101841.38
2019-04-14T15:01:56.529Z,101834.20
2019-04-14T15:04:29.295Z,101836.26
2019-04-14T15:07:01.075Z,101838.38
2019-04-14T15:09:32.699Z,101837.63
2019-04-14T15:12:04.354Z,101843.77
2019-04-14T15:14:36.699Z,101843.72
2019-04-14T15:17:08.630Z,101842.83
2019-04-14T15:19:42.870Z,101838.62
2019-04-14T15:22:15.531Z,101837.42
2019-04-14T15:24:47.027Z,101839.80
2019-04-14T15:27:19.990Z,101837.77
2019-04-14T15:29:51.428Z,101836.98
2019-04-14T15:32:24.194Z,101832.91
2019-04-14T15:34:56.900Z,101832.63
2019-04-14T15:37:31.771Z,101831.80
2019-04-14T15:40:03.468Z,101844.34
2019-04-14T15:42:35.195Z,101842.69
2019-04-14T15:45:07.468Z,101841.38
2019-04-14T15:47:40.252Z,101843.91
2019-04-14T15:50:12.248Z,101841.86
2019-04-14T15:52:44.028Z,101838.72
2019-04-14T15:55:17.928Z,101846.16
2019-04-14T15:58:04.060Z,101841.02
2019-04-14T16:00:52.108Z,101839.87
2019-04-14T16:03:35.749Z,101836.11
2019-04-14T16:06:28.675Z,101838.84
2019-04-14T16:09:28.896Z,101842.34
2019-04-14T16:12:12.742Z,101847.02
2019-04-14T16:14:54.325Z,101838.84
2019-04-14T16:17:45.092Z,101851.39
2019-04-14T16:20:19.693Z,101852.39
2019-04-14T16:22:52.031Z,101848.48
2019-04-14T16:25:26.762Z,101853.36
2019-04-14T16:28:10.852Z,101851.98
2019-04-14T16:31:08.838Z,101854.17
2019-04-14T16:33:58.482Z,101855.01
2019-04-14T16:36:31.369Z,101847.33
2019-04-14T16:39:05.343Z,101849.52
2019-04-14T16:41:36.419Z,101848.75
2019-04-14T16:44:07.528Z,101853.01
2019-04-14T16:46:39.386Z,101852.82
2019-04-14T16:49:10.766Z,101859.47
2019-04-14T16:51:48.124Z,101857.26
2019-04-14T16:54:30.614Z,101856.36
2019-04-14T16:57:33.528Z,101856.36
2019-04-14T17:00:05.968Z,101854.66
2019-04-14T17:02:37.775Z,101859.39
2019-04-14T17:05:09.708Z,101852.75
2019-04-14T17:07:41.194Z,101856.24
2019-04-14T17:10:13.419Z,101857.48
2019-04-14T17:12:45.501Z,101854.34
2019-04-14T17:15:44.685Z,101859.12
2019-04-14T17:18:42.337Z,101866.45
2019-04-14T17:21:32.053Z,101863.02
2019-04-14T17:24:22.366Z,101862.56
2019-04-14T17:27:17.618Z,101871.67
2019-04-14T17:30:02.766Z,101876.45
2019-04-14T17:32:50.399Z,101874.20
2019-04-14T17:35:41.243Z,101872.97
2019-04-14T17:38:26.608Z,101874.26
2019-04-14T17:41:23.154Z,101881.16
2019-04-14T17:44:01.089Z,101883.25
2019-04-14T17:47:03.657Z,101882.36
2019-04-14T17:49:47.317Z,101892.75
2019-04-14T17:52:38.975Z,101891.84
2019-04-14T17:55:25.203Z,101893.09
2019-04-14T17:58:16.435Z,101891.38
2019-04-14T18:00:54.759Z,101889.17
2019-04-14T18:03:54.595Z,101891.23
2019-04-14T18:06:45.359Z,101887.70
2019-04-14T18:09:47.433Z,101891.09
2019-04-14T18:12:29.832Z,101892.34
2019-04-14T18:15:15.836Z,101895.75
2019-04-14T18:17:57.957Z,101898.36
2019-04-14T18:20:32.853Z,101899.16
2019-04-14T18:23:04.891Z,101899.11
2019-04-14T18:25:36.812Z,101896.91
2019-04-14T18:28:35.688Z,101897.79
2019-04-14T18:31:26.275Z,101902.44
2019-04-14T18:34:25.819Z,101902.00
2019-04-14T18:37:16.839Z,101907.88
2019-04-14T18:40:10.166Z,101917.06
2019-04-14T18:43:00.398Z,101915.34
2019-04-14T18:45:36.276Z,101923.02
2019-04-14T18:48:25.874Z,101923.02
2019-04-14T18:51:19.138Z,101921.70
2019-04-14T18:54:04.438Z,101926.77
2019-04-14T18:56:55.027Z,101924.99
2019-04-14T18:59:50.935Z,101933.17
2019-04-14T19:02:22.556Z,101931.89
2019-04-14T19:04:54.368Z,101937.50
2019-04-14T19:07:25.825Z,101935.13
2019-04-14T19:09:57.906Z,101937.24
2019-04-14T19:12:48.825Z,101944.52
2019-04-14T19:15:34.331Z,101941.81
2019-04-14T19:18:10.883Z,101943.05
2019-04-14T19:20:45.704Z,101954.59
2019-04-14T19:23:17.190Z,101953.76
2019-04-14T19:25:50.521Z,101948.06
2019-04-14T19:28:21.803Z,101954.59
2019-04-14T19:30:54.685Z,101954.11
2019-04-14T19:33:26.616Z,101949.72
2019-04-14T19:36:00.023Z,101952.14
2019-04-14T19:38:32.160Z,101953.12
2019-04-14T19:41:04.121Z,101955.66
2019-04-14T19:43:36.021Z,101959.47
2019-04-14T19:46:07.581Z,101957.73
2019-04-14T19:48:39.550Z,101960.27
2019-04-14T19:51:12.467Z,101962.70
2019-04-14T19:53:45.957Z,101973.16
2019-04-14T19:56:18.081Z,101969.11
2019-04-14T19:58:50.111Z,101976.33
2019-04-14T20:01:21.871Z,101975.77
2019-04-14T20:03:53.130Z,101973.16
2019-04-14T20:06:24.647Z,101983.65
2019-04-14T20:08:56.465Z,101976.82
2019-04-14T20:11:28.199Z,101973.38
2019-04-14T20:14:00.241Z,101980.13
2019-04-14T20:16:59.982Z,101976.52
2019-04-14T20:19:56.797Z,101983.46
2019-04-14T20:22:56.210Z,101984.16
2019-04-14T20:26:05.417Z,101977.42
2019-04-14T20:28:59.288Z,101986.80
2019-04-14T20:31:50.811Z,101987.34
2019-04-14T20:34:28.592Z,101979.34
2019-04-14T20:37:00.169Z,101981.49
2019-04-14T20:39:32.762Z,101980.28
2019-04-14T20:42:07.463Z,101982.78
2019-04-14T20:44:38.902Z,101988.30
2019-04-14T20:47:10.784Z,101989.08
2019-04-14T20:49:42.490Z,101991.92
2019-04-14T20:52:13.768Z,101990.91
2019-04-14T20:54:45.004Z,101997.73
2019-04-14T20:57:16.335Z,101998.79
2019-04-14T20:59:47.599Z,102001.80
2019-04-14T21:05:40.834Z,102003.41
2019-04-14T21:08:50.003Z,102000.80
2019-04-14T21:11:35.680Z,102000.56
2019-04-14T21:14:29.308Z,102005.89
2019-04-14T21:17:07.149Z,101999.89
2019-04-14T21:19:53.149Z,102004.50
2019-04-14T21:22:35.499Z,101997.44
2019-04-14T21:25:25.926Z,102000.41
2019-04-14T21:28:15.007Z,102000.09
2019-04-14T21:31:11.976Z,101999.21
2019-04-14T21:34:02.115Z,101996.11
2019-04-14T21:36:47.333Z,101996.82
2019-04-14T21:39:49.878Z,102000.20
2019-04-14T21:42:21.968Z,102004.62
2019-04-14T21:44:53.720Z,102003.92
2019-04-14T21:47:25.134Z,102006.10
2019-04-14T21:49:58.977Z,102003.64
2019-04-14T21:52:34.881Z,102010.30
2019-04-14T21:55:07.236Z,102014.56
2019-04-14T21:57:46.564Z,102011.06
2019-04-14T22:00:28.210Z,102005.67
2019-04-14T22:03:21.807Z,102013.44
2019-04-14T22:06:16.419Z,102014.00
2019-04-14T22:08:50.552Z,102015.88
2019-04-14T22:11:26.222Z,102018.75
2019-04-14T22:13:57.962Z,102021.16
2019-04-14T22:16:30.052Z,102028.79
2019-04-14T22:19:01.887Z,102033.05
2019-04-14T22:21:33.820Z,102029.50
2019-04-14T22:24:05.190Z,102035.16
2019-04-14T22:26:36.632Z,102037.41
2019-04-14T22:29:10.674Z,102043.86
2019-04-14T22:31:42.119Z,102041.45
2019-04-14T22:34:13.777Z,102043.75
2019-04-14T22:36:45.150Z,102043.45
2019-04-14T22:39:17.355Z,102044.48
2019-04-14T22:41:49.098Z,102045.94
2019-04-14T22:44:20.856Z,102052.00
2019-04-14T22:46:52.463Z,102058.55
2019-04-14T22:49:23.816Z,102060.37
2019-04-14T22:51:55.884Z,102058.38
2019-04-14T22:54:27.915Z,102060.80
2019-04-14T22:56:59.325Z,102058.22
2019-04-14T22:59:31.115Z,102067.69
2019-04-14T23:02:10.366Z,102058.48
2019-04-14T23:05:11.198Z,102067.62
2019-04-14T23:07:55.301Z,102066.89
2019-04-14T23:10:41.914Z,102074.62
2019-04-14T23:13:22.752Z,102077.82
2019-04-14T23:16:20.165Z,102074.95
2019-04-14T23:18:58.837Z,102076.56
2019-04-14T23:21:49.068Z,102076.45
2019-04-14T23:24:26.615Z,102077.98
2019-04-14T23:26:58.058Z,102075.52
2019-04-14T23:29:30.063Z,102079.12
2019-04-14T23:32:01.567Z,102073.41
2019-04-14T23:34:33.297Z,102077.73
2019-04-14T23:37:05.180Z,102081.78
2019-04-14T23:39:36.594Z,102082.27
2019-04-14T23:42:10.727Z,102082.55
2019-04-14T23:44:42.487Z,102080.73
2019-04-14T23:47:13.810Z,102080.73
2019-04-14T23:49:45.068Z,102078.42
2019-04-14T23:52:16.480Z,102078.38
2019-04-14T23:54:47.751Z,102071.14
2019-04-14T23:57:19.104Z,102077.23
2019-04-14T23:59:50.437Z,102080.98
